Time;durP1;ratioP1;P1;durP2;ratioP2;P2;SDS_P1;SDS_P2;PMS_P1;PMS_P2;Temp;Humidity;BMP_temperature;BMP_pressure;BME280_temperature;BME280_humidity;BME280_pressure;Samples;Min_cycle;Max_cycle;Signal;HPM_P1;HPM_P2
2022/08/25 00:01:28;;;;;;;3.57;2.83;;;21.10;99.90;;;;;;5024049;28;20536;-84
2022/08/25 00:03:54;;;;;;;3.27;2.80;;;21.00;99.90;;;;;;5024807;28;20414;-84
2022/08/25 00:06:20;;;;;;;4.33;2.97;;;20.90;99.90;;;;;;5043044;28;21102;-84
2022/08/25 00:08:47;;;;;;;4.20;3.10;;;20.70;99.90;;;;;;5028761;28;20508;-84
2022/08/25 00:11:22;;;;;;;6.43;4.20;;;20.50;99.90;;;;;;5028013;28;20421;-84
2022/08/25 00:13:52;;;;;;;3.73;2.97;;;20.20;99.90;;;;;;5047790;28;20452;-84
2022/08/25 00:16:19;;;;;;;4.10;3.33;;;20.00;99.90;;;;;;5036890;28;20467;-84
2022/08/25 00:18:47;;;;;;;4.47;3.27;;;20.00;99.90;;;;;;5030855;28;20524;-84
2022/08/25 00:21:14;;;;;;;5.70;3.17;;;20.00;99.90;;;;;;5028654;28;20945;-84
2022/08/25 00:23:40;;;;;;;7.80;3.63;;;20.00;99.90;;;;;;5030438;28;20503;-84
2022/08/25 00:26:07;;;;;;;5.10;3.57;;;20.00;99.90;;;;;;5030013;28;20429;-84
2022/08/25 00:28:34;;;;;;;5.33;3.53;;;20.00;99.90;;;;;;5028672;28;20980;-84
2022/08/25 00:31:00;;;;;;;4.30;3.53;;;20.00;99.90;;;;;;5028420;28;20433;-83
2022/08/25 00:33:26;;;;;;;4.87;3.13;;;20.00;99.90;;;;;;5029100;28;20460;-84
2022/08/25 00:35:53;;;;;;;4.00;3.10;;;20.00;99.90;;;;;;5041367;28;20220;-84
2022/08/25 00:38:19;;;;;;;3.67;3.13;;;20.00;99.90;;;;;;5029790;28;20543;-83
2022/08/25 00:40:45;;;;;;;5.00;3.30;;;20.00;99.90;;;;;;5030080;28;20452;-84
2022/08/25 00:43:11;;;;;;;4.43;2.50;;;19.90;99.90;;;;;;5027307;28;20436;-84
2022/08/25 00:45:37;;;;;;;4.30;3.40;;;19.90;99.90;;;;;;5027168;28;20928;-84
2022/08/25 00:48:03;;;;;;;3.97;3.10;;;19.70;99.90;;;;;;5028235;28;20472;-84
2022/08/25 00:50:33;;;;;;;4.47;3.30;;;20.20;99.90;;;;;;5031320;28;20424;-83
2022/08/25 00:53:02;;;;;;;4.40;3.80;;;19.60;99.90;;;;;;5029688;28;20436;-84
2022/08/25 00:55:33;;;;;;;4.57;3.40;;;19.50;99.90;;;;;;5044777;28;20461;-84
2022/08/25 00:58:10;;;;;;;4.23;3.70;;;19.30;99.90;;;;;;5037205;28;20521;-83
2022/08/25 01:00:39;;;;;;;4.20;3.43;;;19.20;99.90;;;;;;5031688;28;20772;-85
2022/08/25 01:03:05;;;;;;;4.53;3.10;;;18.90;99.90;;;;;;5044629;28;20437;-85
2022/08/25 01:05:31;;;;;;;3.83;3.40;;;18.80;99.90;;;;;;5029077;28;20484;-86
2022/08/25 01:08:01;;;;;;;5.73;3.57;;;18.60;99.90;;;;;;5030184;28;20433;-85
2022/08/25 01:10:29;;;;;;;5.03;3.70;;;18.50;99.90;;;;;;5029108;28;20435;-84
2022/08/25 01:13:00;;;;;;;4.47;4.00;;;18.40;99.90;;;;;;5030908;28;20784;-84
2022/08/25 01:15:26;;;;;;;4.60;3.97;;;18.40;99.90;;;;;;5027735;28;20485;-84
2022/08/25 01:17:54;;;;;;;4.43;4.03;;;18.40;99.90;;;;;;5029490;28;20499;-84
2022/08/25 01:20:24;;;;;;;5.23;3.80;;;18.40;99.90;;;;;;5029431;28;20400;-85
2022/08/25 01:22:51;;;;;;;7.70;4.93;;;18.30;99.90;;;;;;5040697;28;21029;-84
2022/08/25 01:25:47;;;;;;;4.43;3.60;;;18.30;99.90;;;;;;5046529;28;21073;-84
2022/08/25 01:28:13;;;;;;;6.57;4.93;;;18.30;99.90;;;;;;5046155;28;20791;-83
2022/08/25 01:30:39;;;;;;;7.17;3.47;;;18.30;99.90;;;;;;5039185;28;20777;-84
2022/08/25 01:33:07;;;;;;;4.63;3.43;;;18.30;99.90;;;;;;5036237;28;20944;-84
2022/08/25 01:35:34;;;;;;;4.47;3.83;;;18.20;99.90;;;;;;5031391;28;20455;-84
2022/08/25 01:38:03;;;;;;;9.13;3.93;;;18.20;99.90;;;;;;5035845;28;21193;-85
2022/08/25 01:40:29;;;;;;;8.23;3.93;;;18.10;99.90;;;;;;5034430;28;20417;-83
2022/08/25 01:43:05;;;;;;;6.50;4.03;;;18.10;99.90;;;;;;5038943;28;20458;-83
2022/08/25 01:45:31;;;;;;;5.60;3.57;;;18.00;99.90;;;;;;5038405;28;20562;-84
2022/08/25 01:47:57;;;;;;;9.17;4.30;;;17.90;99.90;;;;;;5041819;28;21067;-85
2022/08/25 01:50:23;;;;;;;5.57;4.20;;;17.90;99.90;;;;;;5037631;28;20443;-83
2022/08/25 01:53:02;;;;;;;5.00;4.50;;;17.90;99.90;;;;;;5047971;28;20201;-85
2022/08/25 01:55:29;;;;;;;6.20;4.70;;;17.90;99.90;;;;;;5041244;28;20201;-84
2022/08/25 01:57:56;;;;;;;5.33;4.10;;;17.90;99.90;;;;;;5033168;28;20459;-83
2022/08/25 02:00:23;;;;;;;7.80;4.73;;;17.90;99.90;;;;;;5035705;28;20459;-84
2022/08/25 02:02:48;;;;;;;6.70;4.60;;;17.90;99.90;;;;;;5035210;28;20464;-85
2022/08/25 02:05:15;;;;;;;12.00;4.00;;;17.90;99.90;;;;;;5045818;28;20417;-84
2022/08/25 02:07:41;;;;;;;6.10;4.10;;;17.90;99.90;;;;;;5039997;28;20194;-84
2022/08/25 02:10:09;;;;;;;9.73;4.60;;;17.90;99.90;;;;;;5035414;28;20673;-84
2022/08/25 02:12:35;;;;;;;7.87;4.40;;;17.90;99.90;;;;;;5032567;28;20467;-84
2022/08/25 02:15:04;;;;;;;7.63;5.40;;;17.90;99.90;;;;;;5043457;28;20460;-83
2022/08/25 02:17:30;;;;;;;6.10;4.80;;;17.80;99.90;;;;;;5044091;28;20483;-83
2022/08/25 02:19:56;;;;;;;6.73;4.50;;;17.80;99.90;;;;;;5032980;28;20412;-84
2022/08/25 02:22:22;;;;;;;5.70;4.40;;;17.80;99.90;;;;;;5034847;28;20181;-85
2022/08/25 02:24:48;;;;;;;10.80;4.67;;;17.80;99.90;;;;;;5034153;28;20436;-83
2022/08/25 02:27:15;;;;;;;6.07;3.70;;;17.80;99.90;;;;;;5029366;28;20989;-84
2022/08/25 02:29:40;;;;;;;10.50;5.50;;;17.80;99.90;;;;;;5032702;28;20428;-85
2022/08/25 02:32:07;;;;;;;7.20;4.90;;;17.80;99.90;;;;;;5036560;28;20462;-84
2022/08/25 02:34:34;;;;;;;6.33;5.27;;;17.70;99.90;;;;;;5042346;28;20465;-84
2022/08/25 02:36:59;;;;;;;7.70;5.20;;;17.70;99.90;;;;;;5034667;28;20452;-83
2022/08/25 02:39:25;;;;;;;10.00;6.53;;;17.60;99.90;;;;;;5031612;28;20413;-85
2022/08/25 02:41:50;;;;;;;8.90;5.50;;;18.20;99.90;;;;;;5032110;28;20178;-83
2022/08/25 02:44:16;;;;;;;8.40;5.23;;;17.60;99.90;;;;;;5035442;28;20185;-84
2022/08/25 02:46:42;;;;;;;7.97;6.00;;;17.60;99.90;;;;;;5032786;28;20200;-85
2022/08/25 02:49:08;;;;;;;6.10;5.03;;;17.50;99.90;;;;;;5034367;28;20171;-84
2022/08/25 02:51:34;;;;;;;7.77;5.40;;;17.50;99.90;;;;;;5033757;28;20429;-83
2022/08/25 02:54:02;;;;;;;6.77;5.00;;;17.40;99.90;;;;;;5041756;28;20193;-85
2022/08/25 02:56:29;;;;;;;8.60;5.80;;;17.40;99.90;;;;;;5045175;28;20432;-84
2022/08/25 02:58:54;;;;;;;11.73;5.57;;;17.30;99.90;;;;;;5033970;28;20421;-84
2022/08/25 03:01:20;;;;;;;7.33;5.20;;;17.20;99.90;;;;;;5033518;28;20420;-85
2022/08/25 03:03:47;;;;;;;7.73;5.53;;;17.20;99.90;;;;;;5038972;28;20276;-84
2022/08/25 03:06:17;;;;;;;8.60;5.20;;;17.20;99.90;;;;;;5044699;28;20185;-84
2022/08/25 03:08:43;;;;;;;10.10;5.90;;;17.10;99.90;;;;;;5037101;28;20440;-84
2022/08/25 03:11:09;;;;;;;8.40;6.27;;;17.20;99.90;;;;;;5032663;28;20429;-83
2022/08/25 03:13:35;;;;;;;9.20;6.57;;;17.10;99.90;;;;;;5032511;28;20433;-84
2022/08/25 03:16:02;;;;;;;11.57;6.43;;;17.10;99.90;;;;;;5035345;28;20522;-84
2022/08/25 03:18:29;;;;;;;7.70;6.27;;;17.10;99.90;;;;;;5031533;28;20428;-84
2022/08/25 03:20:54;;;;;;;9.13;6.33;;;17.10;99.90;;;;;;5033754;28;20775;-84
2022/08/25 03:23:20;;;;;;;8.90;6.17;;;17.10;99.90;;;;;;5034098;28;20411;-83
2022/08/25 03:28:31;;;;;;;8.17;5.90;;;17.00;99.90;;;;;;5049567;28;20238;-83
2022/08/25 03:30:59;;;;;;;8.17;6.53;;;17.10;99.90;;;;;;5036588;28;20410;-82
2022/08/25 03:33:25;;;;;;;7.53;5.43;;;17.10;99.90;;;;;;5026922;28;20460;-82
2022/08/25 03:35:51;;;;;;;7.80;6.13;;;17.00;99.90;;;;;;5025156;28;20453;-82
2022/08/25 03:38:17;;;;;;;7.73;6.07;;;17.00;99.90;;;;;;5035303;28;20484;-82
2022/08/25 03:40:42;;;;;;;9.50;7.33;;;17.00;99.90;;;;;;5032416;28;20185;-82
2022/08/25 03:43:08;;;;;;;8.80;6.77;;;17.00;99.90;;;;;;5020591;28;20248;-82
2022/08/25 03:45:33;;;;;;;9.30;6.93;;;17.00;99.90;;;;;;5020809;28;20177;-83
2022/08/25 03:47:59;;;;;;;8.87;6.27;;;17.00;99.90;;;;;;5020896;28;20186;-82
2022/08/25 03:50:24;;;;;;;10.20;6.40;;;16.90;99.90;;;;;;5020677;28;20183;-82
2022/08/25 03:52:53;;;;;;;8.50;6.43;;;16.90;99.90;;;;;;5021217;28;20186;-82
2022/08/25 03:55:19;;;;;;;11.03;6.83;;;16.80;99.90;;;;;;5020925;28;20194;-82
2022/08/25 03:57:45;;;;;;;7.93;6.03;;;16.80;99.90;;;;;;5019967;28;20858;-83
2022/08/25 04:00:11;;;;;;;8.60;6.33;;;16.80;99.90;;;;;;5021360;28;20413;-82
2022/08/25 04:02:38;;;;;;;11.27;7.27;;;16.80;99.90;;;;;;5020413;28;20173;-82
2022/08/25 04:05:04;;;;;;;10.27;6.53;;;16.80;99.90;;;;;;5020314;28;20440;-82
2022/08/25 04:07:29;;;;;;;9.50;7.00;;;16.80;99.90;;;;;;5020484;28;20438;-83
2022/08/25 04:09:55;;;;;;;9.23;6.93;;;16.80;99.90;;;;;;5020214;28;20433;-82
2022/08/25 04:12:21;;;;;;;9.63;6.67;;;16.80;99.90;;;;;;5020842;28;20194;-82
2022/08/25 04:14:46;;;;;;;13.57;7.60;;;16.80;99.90;;;;;;5020649;28;20202;-82
2022/08/25 04:17:13;;;;;;;10.27;7.27;;;;;;;;;;5028228;28;20447;-82
2022/08/25 04:19:39;;;;;;;11.90;8.00;;;16.80;99.90;;;;;;5031192;28;20481;-82
2022/08/25 04:22:05;;;;;;;10.73;6.97;;;16.90;99.90;;;;;;5040081;28;20419;-83
2022/08/25 04:24:31;;;;;;;12.20;8.70;;;17.00;99.90;;;;;;5041714;28;20185;-83
2022/08/25 04:26:56;;;;;;;14.40;8.10;;;17.00;99.90;;;;;;5041782;28;20359;-83
2022/08/25 04:29:23;;;;;;;11.17;7.90;;;17.00;99.90;;;;;;5042178;28;20429;-82
2022/08/25 04:31:50;;;;;;;14.23;7.77;;;17.10;99.90;;;;;;5040683;28;20178;-82
2022/08/25 04:34:17;;;;;;;11.67;8.00;;;17.20;99.90;;;;;;5041592;28;20405;-82
2022/08/25 04:36:43;;;;;;;21.20;7.13;;;17.10;99.90;;;;;;5039871;28;20947;-82
2022/08/25 04:39:08;;;;;;;12.07;8.83;;;17.10;99.90;;;;;;5038462;28;20445;-82
2022/08/25 04:41:34;;;;;;;10.00;7.13;;;17.00;99.90;;;;;;5029493;28;20177;-82
2022/08/25 04:44:01;;;;;;;11.23;7.50;;;17.00;99.90;;;;;;5023682;28;20912;-82
2022/08/25 04:46:30;;;;;;;14.90;7.93;;;17.00;99.90;;;;;;5019563;28;20436;-82
2022/08/25 04:48:55;;;;;;;11.73;7.77;;;17.10;99.90;;;;;;5019826;28;20799;-82
2022/08/25 04:51:24;;;;;;;16.93;8.17;;;17.10;99.90;;;;;;5029908;28;20425;-82
2022/08/25 04:53:50;;;;;;;11.27;7.90;;;17.50;99.90;;;;;;5029092;28;20476;-82
2022/08/25 04:56:18;;;;;;;11.90;7.60;;;18.70;99.90;;;;;;5019970;28;20457;-85
2022/08/25 04:58:47;;;;;;;7.90;6.43;;;18.80;99.90;;;;;;5021172;28;20202;-85
2022/08/25 05:01:16;;;;;;;10.23;7.60;;;19.90;99.90;;;;;;5033264;28;20440;-84
2022/08/25 05:03:44;;;;;;;10.63;6.77;;;20.70;99.90;;;;;;5035138;28;20480;-84
2022/08/25 05:06:10;;;;;;;8.70;6.57;;;21.10;99.90;;;;;;5036193;28;20759;-84
2022/08/25 05:08:36;;;;;;;11.20;6.70;;;21.20;99.90;;;;;;5042439;28;20412;-82
2022/08/25 05:11:11;;;;;;;10.23;6.63;;;21.90;99.90;;;;;;5043747;28;20420;-82
2022/08/25 05:13:38;;;;;;;8.73;6.70;;;22.60;99.90;;;;;;5050315;28;20526;-84
2022/08/25 05:16:04;;;;;;;8.50;6.37;;;24.50;99.90;;;;;;5035717;28;20463;-84
2022/08/25 05:18:31;;;;;;;6.70;5.17;;;24.50;99.90;;;;;;5032748;28;20500;-83
2022/08/25 05:21:05;;;;;;;5.97;5.13;;;26.20;99.90;;;;;;5042573;28;20424;-83
2022/08/25 05:23:31;;;;;;;8.33;6.80;;;27.90;99.90;;;;;;5034619;28;20416;-83
2022/08/25 05:26:02;;;;;;;9.23;6.20;;;29.50;99.90;;;;;;5037973;28;20484;-83
2022/08/25 05:28:28;;;;;;;9.70;6.27;;;30.80;99.90;;;;;;5025869;28;20161;-82
2022/08/25 05:30:58;;;;;;;62.70;12.83;;;32.00;99.30;;;;;;5022975;28;20792;-84
2022/08/25 05:33:23;;;;;;;6.70;5.57;;;33.20;95.20;;;;;;5023636;28;20159;-85
2022/08/25 05:35:49;;;;;;;7.60;6.00;;;;;;;;;;5023877;28;20954;-85
2022/08/25 05:38:15;;;;;;;6.80;6.20;;;;;;;;;;5023149;28;20199;-85
2022/08/25 05:40:41;;;;;;;8.87;7.27;;;35.60;76.80;;;;;;5030090;28;20444;-85
2022/08/25 05:43:06;;;;;;;8.63;7.80;;;36.40;73.30;;;;;;5031469;28;20452;-84
2022/08/25 05:45:32;;;;;;;15.37;7.23;;;36.90;67.40;;;;;;5035701;28;20213;-85
2022/08/25 05:47:57;;;;;;;8.23;7.37;;;37.30;63.20;;;;;;5029247;28;20198;-85
2022/08/25 05:50:23;;;;;;;12.53;8.67;;;37.50;60.50;;;;;;5033857;28;20553;-84
2022/08/25 05:52:48;;;;;;;8.20;7.40;;;37.50;57.90;;;;;;5030290;28;20191;-84
2022/08/25 05:55:14;;;;;;;10.53;9.37;;;38.20;57.00;;;;;;5023997;28;20207;-84
2022/08/25 05:57:40;;;;;;;10.67;9.63;;;39.00;56.00;;;;;;5023919;28;20221;-85
2022/08/25 06:00:07;;;;;;;11.27;10.20;;;40.00;54.00;;;;;;5024675;28;20171;-85
2022/08/25 06:02:47;;;;;;;11.23;10.23;;;40.60;51.00;;;;;;5032692;28;20439;-82
2022/08/25 06:05:21;;;;;;;12.03;10.93;;;40.40;49.90;;;;;;5030916;28;20499;-83
2022/08/25 06:07:49;;;;;;;12.70;11.50;;;40.60;49.10;;;;;;5023700;28;20426;-85
2022/08/25 06:10:16;;;;;;;15.90;12.90;;;40.30;47.90;;;;;;5029704;28;20416;-86
2022/08/25 06:12:43;;;;;;;13.50;12.30;;;40.00;48.10;;;;;;5035346;28;20428;-86
2022/08/25 06:15:18;;;;;;;15.00;13.70;;;40.20;48.40;;;;;;5024573;28;20506;-85
2022/08/25 06:17:44;;;;;;;14.10;12.90;;;40.70;47.30;;;;;;5024034;28;20438;-85
2022/08/25 06:20:12;;;;;;;14.13;12.97;;;40.20;46.20;;;;;;5023923;28;20467;-85
2022/08/25 06:22:39;;;;;;;15.23;14.00;;;;;;;;;;5023195;28;20593;-85
2022/08/25 06:25:06;;;;;;;16.70;15.37;;;40.70;46.10;;;;;;5029155;28;20432;-84
2022/08/25 06:27:32;;;;;;;15.60;14.10;;;40.80;46.00;;;;;;5028403;28;20482;-83
2022/08/25 06:29:58;;;;;;;13.53;12.53;;;41.10;45.80;;;;;;5030706;28;20450;-84
2022/08/25 06:32:23;;;;;;;17.07;15.60;;;;;;;;;;5027094;28;20496;-86
2022/08/25 06:34:49;;;;;;;16.33;15.03;;;43.30;42.50;;;;;;5026856;28;20205;-85
2022/08/25 06:37:15;;;;;;;16.77;15.30;;;;;;;;;;5028531;28;20209;-85
2022/08/25 06:39:41;;;;;;;16.57;15.00;;;43.10;40.80;;;;;;5033331;28;20236;-84
2022/08/25 06:42:06;;;;;;;16.53;15.13;;;42.40;41.70;;;;;;5029217;28;20417;-84
2022/08/25 06:44:32;;;;;;;18.33;16.83;;;42.50;42.00;;;;;;5035614;28;20178;-84
2022/08/25 06:46:58;;;;;;;18.53;17.13;;;;;;;;;;5038423;28;20982;-85
2022/08/25 06:49:27;;;;;;;19.67;18.23;;;42.20;41.10;;;;;;5032798;28;20495;-83
2022/08/25 06:51:53;;;;;;;19.23;16.90;;;41.90;42.00;;;;;;5035750;28;20428;-85
2022/08/25 06:54:19;;;;;;;18.83;16.60;;;;;;;;;;5027431;28;20429;-84
2022/08/25 06:56:45;;;;;;;19.60;17.70;;;42.20;39.70;;;;;;5028217;28;20197;-84
2022/08/25 06:59:11;;;;;;;17.83;15.70;;;;;;;;;;5026712;28;20910;-84
2022/08/25 07:01:37;;;;;;;17.97;16.37;;;39.90;42.40;;;;;;5026113;28;20401;-84
2022/08/25 07:04:05;;;;;;;15.43;13.90;;;40.00;44.10;;;;;;5027792;28;20429;-85
2022/08/25 07:06:34;;;;;;;16.80;15.37;;;40.30;42.90;;;;;;5023398;28;20194;-85
2022/08/25 07:09:00;;;;;;;17.13;15.83;;;40.30;43.50;;;;;;5026704;28;20451;-85
2022/08/25 07:11:26;;;;;;;14.77;13.27;;;40.10;42.60;;;;;;5027203;28;20412;-85
2022/08/25 07:13:52;;;;;;;16.07;14.90;;;;;;;;;;5027926;28;20457;-84
2022/08/25 07:16:19;;;;;;;15.87;14.57;;;41.20;42.80;;;;;;5027619;28;20455;-85
2022/08/25 07:18:45;;;;;;;16.87;15.57;;;41.30;43.40;;;;;;5024964;28;20417;-85
2022/08/25 07:21:13;;;;;;;16.23;14.93;;;42.40;42.30;;;;;;5022095;28;20452;-85
2022/08/25 07:23:40;;;;;;;15.10;14.10;;;40.90;41.50;;;;;;5028356;28;20952;-84
2022/08/25 07:26:16;;;;;;;14.70;13.47;;;40.10;43.00;;;;;;5022657;28;20427;-84
2022/08/25 07:28:43;;;;;;;15.70;14.10;;;40.20;43.70;;;;;;5026771;28;20433;-85
2022/08/25 07:31:09;;;;;;;14.33;13.17;;;;;;;;;;5025734;28;20421;-85
2022/08/25 07:33:35;;;;;;;15.10;13.90;;;;;;;;;;5029605;28;20488;-84
2022/08/25 07:36:01;;;;;;;14.73;13.20;;;40.30;42.70;;;;;;5030529;28;21256;-84
2022/08/25 07:38:28;;;;;;;15.70;14.60;;;40.30;43.20;;;;;;5028026;28;20425;-85
2022/08/25 07:41:03;;;;;;;15.67;14.40;;;40.20;43.30;;;;;;5024332;28;20455;-85
2022/08/25 07:43:29;;;;;;;17.67;16.37;;;40.90;43.10;;;;;;5024325;28;20431;-85
2022/08/25 07:45:54;;;;;;;15.30;13.87;;;41.10;42.80;;;;;;5025893;28;20435;-84
2022/08/25 07:48:20;;;;;;;14.67;13.57;;;40.90;42.50;;;;;;5027612;28;20201;-84
2022/08/25 07:50:47;;;;;;;16.73;15.67;;;40.20;43.20;;;;;;5027323;28;20193;-84
2022/08/25 07:53:15;;;;;;;15.77;14.00;;;41.30;42.00;;;;;;5031166;28;20182;-85
2022/08/25 07:55:41;;;;;;;16.33;14.80;;;41.40;42.60;;;;;;5041538;28;20452;-85
2022/08/25 07:58:08;;;;;;;15.93;14.63;;;40.70;42.00;;;;;;5039618;28;20921;-85
2022/08/25 08:00:36;;;;;;;16.87;15.27;;;40.50;43.10;;;;;;5030068;28;20422;-85
2022/08/25 08:03:04;;;;;;;16.70;15.37;;;41.00;42.90;;;;;;5022503;28;20952;-84
2022/08/25 08:05:29;;;;;;;15.90;14.70;;;40.60;42.60;;;;;;5026898;28;20424;-85
2022/08/25 08:07:55;;;;;;;16.23;15.03;;;;;;;;;;5036797;28;20469;-85
2022/08/25 08:10:22;;;;;;;15.90;14.23;;;41.30;42.30;;;;;;5034542;28;20217;-86
2022/08/25 08:12:48;;;;;;;14.87;13.77;;;41.50;42.00;;;;;;5026536;28;21241;-85
2022/08/25 08:15:14;;;;;;;16.03;15.00;;;42.00;41.30;;;;;;5029153;28;20467;-81
2022/08/25 08:17:40;;;;;;;16.50;15.33;;;42.00;41.00;;;;;;5025324;28;20449;-85
2022/08/25 08:20:08;;;;;;;19.10;14.50;;;42.40;41.00;;;;;;5027844;28;20483;-84
2022/08/25 08:22:35;;;;;;;18.07;16.43;;;42.30;41.50;;;;;;5028361;28;20413;-85
2022/08/25 08:25:01;;;;;;;15.20;13.90;;;42.10;41.30;;;;;;5041861;28;20438;-84
2022/08/25 08:27:27;;;;;;;15.20;14.27;;;41.70;40.70;;;;;;5033049;28;20465;-85
2022/08/25 08:29:52;;;;;;;15.40;14.37;;;40.70;42.00;;;;;;5028221;28;20197;-85
2022/08/25 08:32:19;;;;;;;15.77;14.53;;;39.30;43.90;;;;;;5026573;28;20182;-84
2022/08/25 08:34:45;;;;;;;16.37;15.23;;;39.10;44.70;;;;;;5025988;28;20219;-85
2022/08/25 08:37:11;;;;;;;15.30;14.30;;;38.70;44.20;;;;;;5029415;28;20436;-83
2022/08/25 08:39:37;;;;;;;15.17;14.17;;;39.50;44.30;;;;;;5026107;28;20461;-84
2022/08/25 08:42:25;;;;;;;14.93;13.53;;;38.90;44.20;;;;;;5019920;28;20200;-85
2022/08/25 08:45:04;;;;;;;14.77;13.53;;;38.20;45.80;;;;;;5025227;28;20462;-84
2022/08/25 08:47:54;;;;;;;13.73;12.63;;;37.20;47.30;;;;;;5024728;28;20466;-85
2022/08/25 08:50:32;;;;;;;13.10;12.00;;;37.30;47.90;;;;;;5033067;28;20441;-85
2022/08/25 08:53:15;;;;;;;12.73;11.77;;;38.00;46.30;;;;;;5027901;28;20581;-85
2022/08/25 08:55:43;;;;;;;12.47;11.43;;;37.50;46.90;;;;;;5026749;28;20498;-83
2022/08/25 08:58:46;;;;;;;12.87;11.70;;;37.40;47.30;;;;;;5027556;28;20452;-85
2022/08/25 09:01:23;;;;;;;12.43;11.50;;;38.60;46.90;;;;;;5023749;28;20472;-85
2022/08/25 09:03:55;;;;;;;11.30;10.40;;;38.70;45.70;;;;;;5019807;28;20442;-83
2022/08/25 09:06:35;;;;;;;12.10;11.23;;;38.20;46.30;;;;;;5025742;28;20474;-85
2022/08/25 09:09:04;;;;;;;12.37;11.37;;;37.60;46.20;;;;;;5026248;28;20784;-84
2022/08/25 09:12:04;;;;;;;13.17;12.00;;;38.00;46.80;;;;;;5028498;28;20514;-84
2022/08/25 09:14:42;;;;;;;13.37;12.30;;;38.70;45.90;;;;;;5024754;28;20439;-83
2022/08/25 09:17:28;;;;;;;11.70;10.87;;;38.10;46.00;;;;;;5019410;28;20440;-85
2022/08/25 09:20:24;;;;;;;12.83;11.80;;;39.10;45.40;;;;;;5022200;28;20416;-84
2022/08/25 09:22:53;;;;;;;12.50;11.40;;;39.10;45.10;;;;;;5026928;28;20456;-86
2022/08/25 09:25:47;;;;;;;14.70;13.50;;;39.20;44.70;;;;;;5041975;28;20451;-86
2022/08/25 09:28:40;;;;;;;13.73;12.83;;;39.10;44.90;;;;;;5023708;28;20505;-86
2022/08/25 09:31:30;;;;;;;14.53;13.33;;;39.30;44.80;;;;;;5026411;28;20430;-84
2022/08/25 09:34:00;;;;;;;13.97;12.80;;;38.40;45.30;;;;;;5032875;28;20501;-86
2022/08/25 09:36:26;;;;;;;14.73;13.47;;;38.80;45.00;;;;;;5038181;28;20620;-85
2022/08/25 09:38:52;;;;;;;14.73;12.80;;;38.90;46.20;;;;;;5039918;28;20411;-86
2022/08/25 09:41:45;;;;;;;14.50;13.40;;;38.80;44.50;;;;;;5038467;28;20900;-85
2022/08/25 09:44:26;;;;;;;13.73;12.73;;;39.10;44.40;;;;;;5040768;28;20163;-86
2022/08/25 09:47:14;;;;;;;13.80;12.70;;;39.20;43.60;;;;;;5043939;28;21046;-85
2022/08/25 09:49:56;;;;;;;13.17;12.20;;;39.20;44.10;;;;;;5044205;28;20438;-85
2022/08/25 09:52:25;;;;;;;14.77;13.47;;;38.40;44.00;;;;;;5047004;28;20447;-86
2022/08/25 09:54:52;;;;;;;13.40;12.30;;;38.90;44.00;;;;;;5047659;28;20546;-86
2022/08/25 09:57:33;;;;;;;13.27;12.37;;;38.50;44.60;;;;;;5030091;28;20506;-85
2022/08/25 10:00:17;;;;;;;13.10;12.10;;;39.10;44.40;;;;;;5030986;28;20424;-85
2022/08/25 10:03:00;;;;;;;13.10;12.10;;;39.20;42.20;;;;;;5044622;28;20392;-86
2022/08/25 10:05:27;;;;;;;14.37;13.07;;;;;;;;;;5033959;28;20468;-86
2022/08/25 10:07:58;;;;;;;13.57;12.67;;;40.00;41.80;;;;;;5030447;28;20436;-85
2022/08/25 10:10:31;;;;;;;13.83;12.83;;;40.00;42.40;;;;;;5031540;28;20444;-86
2022/08/25 10:12:59;;;;;;;15.27;14.10;;;;;;;;;;5029946;28;20448;-83
2022/08/25 10:15:34;;;;;;;13.90;13.00;;;38.90;41.00;;;;;;5023946;28;20461;-85
2022/08/25 10:18:24;;;;;;;15.33;14.20;;;38.70;43.40;;;;;;5027388;28;20437;-82
2022/08/25 10:21:11;;;;;;;13.63;12.53;;;38.20;43.80;;;;;;5030277;28;20409;-85
2022/08/25 10:23:40;;;;;;;12.10;11.40;;;36.60;46.20;;;;;;5042055;28;20410;-86
2022/08/25 10:26:18;;;;;;;13.00;11.80;;;34.70;46.50;;;;;;5035086;28;20449;-86
2022/08/25 10:28:56;;;;;;;10.90;9.90;;;34.60;46.90;;;;;;5044225;28;20795;-85
2022/08/25 10:31:34;;;;;;;9.50;8.80;;;33.90;47.90;;;;;;5030014;28;20509;-85
2022/08/25 10:34:14;;;;;;;9.50;8.80;;;33.20;49.60;;;;;;5029166;28;20422;-86
2022/08/25 10:37:05;;;;;;;8.80;8.10;;;32.60;50.40;;;;;;5031314;28;20469;-84
2022/08/25 10:40:00;;;;;;;8.10;7.40;;;31.80;52.40;;;;;;5033404;28;20429;-85
2022/08/25 10:42:32;;;;;;;7.47;6.87;;;31.30;53.40;;;;;;5018995;28;20478;-84
2022/08/25 10:48:24;;;;;;;8.67;7.90;;;30.90;54.40;;;;;;5029207;28;20443;-84
2022/08/25 10:50:57;;;;;;;8.10;7.40;;;31.00;54.80;;;;;;5042698;28;20803;-85
2022/08/25 10:53:52;;;;;;;6.97;6.37;;;31.60;54.70;;;;;;5025388;28;20441;-85
2022/08/25 10:56:30;;;;;;;7.33;6.63;;;31.50;52.90;;;;;;5022582;28;20519;-85
2022/08/25 10:59:12;;;;;;;8.70;7.90;;;31.50;53.70;;;;;;5038274;28;20489;-85
2022/08/25 11:01:53;;;;;;;7.07;6.37;;;31.40;54.20;;;;;;5027912;28;20490;-86
2022/08/25 11:04:36;;;;;;;7.50;6.80;;;31.20;54.00;;;;;;5036448;28;20505;-86
2022/08/25 11:07:39;;;;;;;10.70;7.17;;;31.20;54.60;;;;;;5025638;28;20499;-86
2022/08/25 11:10:11;;;;;;;6.93;6.33;;;31.10;54.70;;;;;;5032680;28;20434;-85
2022/08/25 11:12:53;;;;;;;20.20;8.23;;;30.70;55.10;;;;;;5031885;28;20441;-85
2022/08/25 11:15:24;;;;;;;7.70;7.10;;;31.10;55.60;;;;;;5044797;28;20570;-85
2022/08/25 11:17:57;;;;;;;8.03;7.23;;;31.30;55.30;;;;;;5036461;28;20443;-85
2022/08/25 11:20:32;;;;;;;6.47;5.87;;;31.00;54.30;;;;;;5028985;28;20409;-85
2022/08/25 11:23:13;;;;;;;20.17;8.83;;;31.00;54.70;;;;;;5028964;28;20857;-84
2022/08/25 11:25:48;;;;;;;9.00;6.97;;;30.40;55.10;;;;;;5029200;28;20506;-85
2022/08/25 11:28:21;;;;;;;6.00;5.50;;;30.40;55.20;;;;;;5026055;28;20443;-85
2022/08/25 11:30:50;;;;;;;7.83;6.83;;;30.70;55.70;;;;;;5035811;28;20834;-85
2022/08/25 11:33:17;;;;;;;7.37;6.60;;;30.90;55.30;;;;;;5028316;28;20436;-85
2022/08/25 11:35:55;;;;;;;6.50;6.00;;;31.30;54.60;;;;;;5027387;28;20457;-85
2022/08/25 11:38:30;;;;;;;6.83;6.20;;;31.60;53.80;;;;;;5026329;28;20434;-85
2022/08/25 11:41:20;;;;;;;6.60;5.90;;;31.60;53.60;;;;;;5031670;28;20409;-85
2022/08/25 11:44:10;;;;;;;8.67;6.30;;;32.10;53.00;;;;;;5028647;28;20426;-85
2022/08/25 11:47:10;;;;;;;7.27;6.57;;;32.70;53.40;;;;;;5028125;28;20447;-85
2022/08/25 11:49:47;;;;;;;7.10;6.50;;;33.10;52.30;;;;;;5025888;28;20526;-85
2022/08/25 11:52:31;;;;;;;8.10;7.30;;;33.30;52.10;;;;;;5026306;28;20413;-85
2022/08/25 11:55:09;;;;;;;8.50;7.40;;;33.10;50.80;;;;;;5026392;28;20543;-84
2022/08/25 11:57:35;;;;;;;9.73;7.87;;;33.10;51.60;;;;;;5026128;28;20844;-85
2022/08/25 12:00:12;;;;;;;7.10;6.50;;;33.00;51.20;;;;;;5037120;28;20405;-85
2022/08/25 12:02:44;;;;;;;7.43;6.83;;;33.10;51.20;;;;;;5038149;28;20423;-84
2022/08/25 12:05:16;;;;;;;8.20;7.40;;;32.70;51.30;;;;;;5031807;28;20520;-85
2022/08/25 12:11:01;;;;;;;7.70;7.00;;;32.00;52.30;;;;;;5024414;28;20421;-85
2022/08/25 12:13:47;;;;;;;9.43;6.60;;;32.00;54.10;;;;;;5042769;28;20520;-84
2022/08/25 12:16:35;;;;;;;7.20;6.63;;;31.90;52.60;;;;;;5038784;28;20445;-85
2022/08/25 12:19:33;;;;;;;7.20;6.60;;;31.90;53.20;;;;;;5025853;28;20512;-85
2022/08/25 12:22:01;;;;;;;7.80;7.00;;;31.90;52.80;;;;;;5017912;28;20793;-85
2022/08/25 12:24:42;;;;;;;6.80;6.20;;;31.70;53.40;;;;;;5036836;28;20439;-85
2022/08/25 12:27:32;;;;;;;8.10;7.27;;;31.60;53.20;;;;;;5019900;28;20432;-85
2022/08/25 12:30:06;;;;;;;7.43;6.33;;;31.10;53.80;;;;;;5024836;28;21150;-85
2022/08/25 12:32:47;;;;;;;5.70;5.30;;;30.90;54.30;;;;;;5022972;28;20428;-85
2022/08/25 12:35:19;;;;;;;7.30;6.70;;;30.70;54.80;;;;;;5021220;28;20448;-85
2022/08/25 12:38:17;;;;;;;6.90;6.30;;;30.50;55.20;;;;;;5021061;28;20447;-85
2022/08/25 12:40:43;;;;;;;7.23;6.63;;;30.20;55.30;;;;;;5018222;28;20413;-84
2022/08/25 12:43:12;;;;;;;7.23;6.33;;;30.30;55.30;;;;;;5015256;28;20393;-85
2022/08/25 12:45:44;;;;;;;9.40;5.80;;;30.10;55.80;;;;;;5022717;28;20195;-85
2022/08/25 12:48:28;;;;;;;7.67;6.97;;;30.10;56.40;;;;;;5022717;28;20431;-85
2022/08/25 12:50:59;;;;;;;8.43;5.90;;;30.60;55.10;;;;;;5021948;28;20436;-84
2022/08/25 12:53:42;;;;;;;7.07;6.10;;;30.90;54.90;;;;;;5016613;28;20461;-85
2022/08/25 12:56:29;;;;;;;7.07;6.33;;;31.80;53.10;;;;;;5017510;28;20448;-85
2022/08/25 12:59:29;;;;;;;6.80;6.20;;;31.90;53.40;;;;;;5016627;28;20483;-86
2022/08/25 13:02:50;;;;;;;6.73;6.13;;;32.40;53.40;;;;;;5018249;28;20922;-85
2022/08/25 13:05:36;;;;;;;6.70;6.10;;;31.90;51.10;;;;;;5000653;28;20438;-85
2022/08/25 13:08:20;;;;;;;6.17;5.67;;;31.50;52.00;;;;;;5015280;28;20491;-86
2022/08/25 13:11:03;;;;;;;7.60;6.30;;;31.70;52.40;;;;;;5017620;28;20433;-85
2022/08/25 13:13:43;;;;;;;6.87;6.33;;;31.90;52.40;;;;;;5024355;28;20485;-85